Time;durP1;ratioP1;P1;durP2;ratioP2;P2;SDS_P1;SDS_P2;PMS_P1;PMS_P2;Temp;Humidity;BMP_temperature;BMP_pressure;BME280_temperature;BME280_humidity;BME280_pressure;Samples;Min_cycle;Max_cycle;Signal;HPM_P1;HPM_P2
2022/05/10 00:01:32;;;;;;;12.18;9.82;;;14.10;99.90;;;;;;5042024;28;20021;-68
2022/05/10 00:03:58;;;;;;;15.05;10.05;;;14.00;99.90;;;;;;5037420;28;20021;-69
2022/05/10 00:06:27;;;;;;;13.77;9.65;;;14.00;99.90;;;;;;5039955;28;20021;-69
2022/05/10 00:08:52;;;;;;;16.08;10.63;;;14.00;99.90;;;;;;5041579;28;20045;-69
2022/05/10 00:11:21;;;;;;;15.18;10.68;;;14.00;99.90;;;;;;5040277;28;20409;-69
2022/05/10 00:13:47;;;;;;;15.48;10.27;;;13.90;99.90;;;;;;5039749;28;20037;-69
2022/05/10 00:16:15;;;;;;;15.80;9.95;;;13.90;99.90;;;;;;5043208;28;20372;-69
2022/05/10 00:18:47;;;;;;;14.07;10.32;;;13.80;99.90;;;;;;5042685;28;20029;-69
2022/05/10 00:21:20;;;;;;;14.13;10.35;;;13.80;99.90;;;;;;5041256;28;20920;-69
2022/05/10 00:23:46;;;;;;;11.45;10.23;;;13.70;99.90;;;;;;5043950;28;20126;-69
2022/05/10 00:26:20;;;;;;;13.07;9.80;;;13.70;99.90;;;;;;5043696;28;20033;-69
2022/05/10 00:28:49;;;;;;;15.25;10.25;;;13.70;99.90;;;;;;5044763;28;20029;-69
2022/05/10 00:31:24;;;;;;;15.90;10.23;;;13.70;99.90;;;;;;5042218;28;20553;-68
2022/05/10 00:33:49;;;;;;;14.35;10.25;;;13.60;99.90;;;;;;5035569;28;20517;-68
2022/05/10 00:36:21;;;;;;;15.52;10.43;;;13.50;99.90;;;;;;5043813;28;20068;-68
2022/05/10 00:38:47;;;;;;;14.45;10.38;;;13.50;99.90;;;;;;5042307;28;20032;-68
2022/05/10 00:41:56;;;;;;;13.43;10.30;;;13.50;99.90;;;;;;5041965;28;20386;-68
2022/05/10 00:44:49;;;;;;;11.98;10.02;;;13.40;99.90;;;;;;5041293;28;20482;-69
2022/05/10 00:47:47;;;;;;;14.68;9.65;;;13.40;99.90;;;;;;5033828;28;20071;-68
2022/05/10 00:50:49;;;;;;;11.25;9.63;;;13.40;99.90;;;;;;4997184;28;20060;-69
2022/05/10 00:53:31;;;;;;;12.82;9.10;;;13.40;99.90;;;;;;5038915;28;20012;-69
2022/05/10 00:56:09;;;;;;;14.95;9.82;;;13.40;99.90;;;;;;5041413;28;20083;-68
2022/05/10 00:58:37;;;;;;;14.90;10.55;;;13.30;99.90;;;;;;5045560;28;20040;-68
2022/05/10 01:01:19;;;;;;;14.32;10.57;;;13.30;99.90;;;;;;5040415;28;20067;-68
2022/05/10 01:04:27;;;;;;;13.75;10.02;;;13.20;99.90;;;;;;5037379;28;20021;-68
2022/05/10 01:07:02;;;;;;;12.60;10.23;;;13.10;99.90;;;;;;5036362;28;20037;-68
2022/05/10 01:09:46;;;;;;;14.15;10.25;;;13.10;99.90;;;;;;5040681;28;20600;-68
2022/05/10 01:12:20;;;;;;;14.77;10.02;;;13.00;99.90;;;;;;5045308;28;20032;-68
2022/05/10 01:14:58;;;;;;;;;;;13.00;99.90;;;;;;5042643;28;20455;-69
2022/05/10 01:17:23;;;;;;;16.08;10.30;;;12.90;99.90;;;;;;5041386;28;20011;-68
2022/05/10 01:19:55;;;;;;;14.82;10.45;;;12.90;99.90;;;;;;5040822;28;20148;-69
2022/05/10 01:22:31;;;;;;;13.90;10.43;;;12.80;99.90;;;;;;5038692;28;20124;-69
2022/05/10 01:25:20;;;;;;;14.18;9.95;;;12.80;99.90;;;;;;5036871;28;20036;-71
2022/05/10 01:27:51;;;;;;;15.55;10.95;;;12.80;99.90;;;;;;5038504;28;20491;-70
2022/05/10 01:30:27;;;;;;;14.95;10.98;;;12.80;99.90;;;;;;5044768;28;20090;-68
2022/05/10 01:36:24;;;;;;;14.25;10.50;;;12.80;99.90;;;;;;5044533;28;20494;-69
2022/05/10 01:39:11;;;;;;;12.45;10.07;;;12.70;99.90;;;;;;5010485;28;20452;-68
2022/05/10 01:42:17;;;;;;;20.58;11.13;;;12.70;99.90;;;;;;5044983;28;20041;-68
2022/05/10 01:44:56;;;;;;;13.50;10.15;;;12.70;99.90;;;;;;5039264;28;20520;-68
2022/05/10 01:47:42;;;;;;;14.57;11.50;;;12.80;99.90;;;;;;5043662;28;20104;-69
2022/05/10 01:50:14;;;;;;;15.48;10.15;;;12.80;99.90;;;;;;5040092;28;20029;-69
2022/05/10 01:52:55;;;;;;;13.00;10.23;;;12.70;99.90;;;;;;5037256;28;20028;-69
2022/05/10 01:55:30;;;;;;;13.25;10.68;;;12.70;99.90;;;;;;5039091;28;20106;-69
2022/05/10 01:58:07;;;;;;;16.75;10.80;;;12.60;99.90;;;;;;5040251;28;20026;-69
2022/05/10 02:00:34;;;;;;;15.80;11.18;;;12.60;99.90;;;;;;5037828;28;20024;-69
2022/05/10 02:03:09;;;;;;;14.18;11.25;;;12.50;99.90;;;;;;5040955;28;20048;-69
2022/05/10 02:06:12;;;;;;;14.45;10.55;;;12.50;99.90;;;;;;5038282;28;20028;-69
2022/05/10 02:09:05;;;;;;;14.45;10.85;;;12.50;99.90;;;;;;5041092;28;20101;-69
2022/05/10 02:11:41;;;;;;;14.38;11.18;;;12.50;99.90;;;;;;5042244;28;20029;-69
2022/05/10 02:14:25;;;;;;;13.07;9.95;;;12.50;99.90;;;;;;5036028;28;20358;-69
2022/05/10 02:17:10;;;;;;;12.80;10.70;;;12.50;99.90;;;;;;5042400;28;20035;-69
2022/05/10 02:19:39;;;;;;;14.18;10.70;;;12.50;99.90;;;;;;5059279;28;20067;-69
2022/05/10 02:22:48;;;;;;;17.48;10.70;;;12.50;99.90;;;;;;5038932;28;20029;-69
2022/05/10 02:25:33;;;;;;;13.30;10.15;;;12.50;99.90;;;;;;5023545;28;20037;-69
2022/05/10 02:28:09;;;;;;;14.38;10.23;;;12.50;99.90;;;;;;5040682;28;20021;-70
2022/05/10 02:30:35;;;;;;;16.13;10.55;;;12.50;99.90;;;;;;5037061;28;20025;-70
2022/05/10 02:33:08;;;;;;;16.92;10.77;;;12.40;99.90;;;;;;5038533;28;20021;-69
2022/05/10 02:35:58;;;;;;;13.63;10.55;;;12.40;99.90;;;;;;5036533;28;20063;-70
2022/05/10 02:38:31;;;;;;;14.13;10.93;;;12.40;99.90;;;;;;5043519;28;20090;-69
2022/05/10 02:40:59;;;;;;;15.55;11.40;;;12.40;99.90;;;;;;5038179;28;20047;-69
2022/05/10 02:43:51;;;;;;;13.98;10.85;;;12.40;99.90;;;;;;5041275;28;20036;-69
2022/05/10 02:46:20;;;;;;;16.60;10.77;;;12.40;99.90;;;;;;5035055;28;20581;-69
2022/05/10 02:48:48;;;;;;;14.18;9.93;;;12.40;99.90;;;;;;5041257;28;20068;-69
2022/05/10 02:51:14;;;;;;;13.95;10.10;;;12.40;99.90;;;;;;5034623;28;20017;-69
2022/05/10 02:53:47;;;;;;;14.23;10.50;;;12.30;99.90;;;;;;5044616;28;20033;-69
2022/05/10 02:56:25;;;;;;;14.45;11.18;;;12.40;99.90;;;;;;5046382;28;20473;-69
2022/05/10 02:58:58;;;;;;;13.68;10.43;;;12.30;99.90;;;;;;5048560;28;20033;-69
2022/05/10 03:01:38;;;;;;;14.50;11.10;;;12.30;99.90;;;;;;5049770;28;20032;-69
2022/05/10 03:04:11;;;;;;;15.93;10.60;;;12.20;99.90;;;;;;5051395;28;20098;-69
2022/05/10 03:06:39;;;;;;;17.98;12.07;;;12.10;99.90;;;;;;5052582;28;20033;-69
2022/05/10 03:09:06;;;;;;;17.38;12.23;;;12.00;99.90;;;;;;5053761;28;20102;-69
2022/05/10 03:11:33;;;;;;;14.80;11.18;;;12.00;99.90;;;;;;5050046;28;20535;-69
2022/05/10 03:13:59;;;;;;;14.35;11.77;;;11.90;99.90;;;;;;5048223;28;20057;-69
2022/05/10 03:16:25;;;;;;;19.73;12.00;;;11.90;99.90;;;;;;5051736;28;20523;-69
2022/05/10 03:18:53;;;;;;;16.10;12.25;;;11.90;99.90;;;;;;5051142;28;20078;-69
2022/05/10 03:21:25;;;;;;;16.75;11.73;;;11.80;99.90;;;;;;5041491;28;20066;-69
2022/05/10 03:23:52;;;;;;;15.25;11.60;;;11.70;99.90;;;;;;5048570;28;20060;-69
2022/05/10 03:26:27;;;;;;;14.60;11.75;;;11.80;99.90;;;;;;5049786;28;20028;-70
2022/05/10 03:28:54;;;;;;;17.48;11.45;;;11.70;99.90;;;;;;5047536;28;20029;-69
2022/05/10 03:31:22;;;;;;;16.67;12.30;;;11.70;99.90;;;;;;5058527;28;20029;-69
2022/05/10 03:36:35;;;;;;;15.93;12.63;;;11.60;99.90;;;;;;5042508;28;20079;-70
2022/05/10 03:39:08;;;;;;;16.92;12.27;;;11.60;99.90;;;;;;5050827;28;20405;-69
2022/05/10 03:41:34;;;;;;;16.17;12.30;;;11.60;99.90;;;;;;5050111;28;20025;-70
2022/05/10 03:44:06;;;;;;;16.08;11.75;;;11.60;99.90;;;;;;5049320;28;20032;-69
2022/05/10 03:46:32;;;;;;;16.20;12.18;;;11.60;99.90;;;;;;5044941;28;20044;-70
2022/05/10 03:48:58;;;;;;;16.52;11.75;;;11.60;99.90;;;;;;5045078;28;20025;-70
2022/05/10 03:51:30;;;;;;;16.23;12.18;;;11.50;99.90;;;;;;5045122;28;20116;-70
2022/05/10 03:53:57;;;;;;;16.33;12.30;;;11.40;99.90;;;;;;5047588;28;20106;-70
2022/05/10 03:56:23;;;;;;;17.27;12.57;;;11.40;99.90;;;;;;5050763;28;20045;-69
2022/05/10 03:58:49;;;;;;;16.42;12.43;;;11.40;99.90;;;;;;5050880;28;20045;-70
2022/05/10 04:01:19;;;;;;;18.00;13.07;;;11.40;99.90;;;;;;5045524;28;20043;-70
2022/05/10 04:03:45;;;;;;;20.55;12.85;;;11.40;99.90;;;;;;5046708;28;20053;-70
2022/05/10 04:06:11;;;;;;;16.90;11.90;;;11.40;99.90;;;;;;5040652;28;20438;-70
2022/05/10 04:08:37;;;;;;;18.35;12.10;;;11.50;99.90;;;;;;5046727;28;20024;-70
2022/05/10 04:11:04;;;;;;;16.33;11.80;;;11.40;99.90;;;;;;5043781;28;20036;-69
2022/05/10 04:13:31;;;;;;;15.73;11.23;;;11.40;99.90;;;;;;5044139;28;20080;-70
2022/05/10 04:15:57;;;;;;;16.65;11.95;;;11.50;99.90;;;;;;5046676;28;20025;-70
2022/05/10 04:18:23;;;;;;;16.48;10.85;;;11.50;99.90;;;;;;5050347;28;20450;-69
2022/05/10 04:20:49;;;;;;;18.98;12.57;;;11.50;99.90;;;;;;5051576;28;20120;-70
2022/05/10 04:23:17;;;;;;;17.58;13.18;;;11.50;99.90;;;;;;5051572;28;20017;-70
2022/05/10 04:25:43;;;;;;;15.88;12.75;;;11.50;99.90;;;;;;5046737;28;20064;-70
2022/05/10 04:28:09;;;;;;;16.63;12.60;;;11.50;99.90;;;;;;5047695;28;20025;-69
2022/05/10 04:30:35;;;;;;;16.70;12.90;;;11.50;99.90;;;;;;5042743;28;20025;-69
2022/05/10 04:33:01;;;;;;;15.40;11.45;;;11.50;99.90;;;;;;5053037;28;20051;-69
2022/05/10 04:35:30;;;;;;;14.35;11.90;;;11.50;99.90;;;;;;5046312;28;20080;-70
2022/05/10 04:37:56;;;;;;;15.23;12.00;;;11.60;99.90;;;;;;5043998;28;20043;-70
2022/05/10 04:43:08;;;;;;;17.92;11.43;;;11.70;99.90;;;;;;5046285;28;20032;-70
2022/05/10 04:45:34;;;;;;;14.65;11.40;;;11.70;99.90;;;;;;5042610;28;20030;-71
2022/05/10 04:48:00;;;;;;;18.75;11.65;;;11.90;99.90;;;;;;5050552;28;20029;-71
2022/05/10 04:50:31;;;;;;;16.42;11.35;;;12.00;99.90;;;;;;5039763;28;20056;-71
2022/05/10 04:53:06;;;;;;;15.77;11.40;;;12.10;99.90;;;;;;5042950;28;20123;-71
2022/05/10 04:55:38;;;;;;;16.33;11.90;;;12.40;99.90;;;;;;5043652;28;20071;-70
2022/05/10 04:58:03;;;;;;;14.05;10.48;;;12.70;99.90;;;;;;5043435;28;20444;-71
2022/05/10 05:00:30;;;;;;;13.93;11.15;;;13.00;99.90;;;;;;5040728;28;20033;-71
2022/05/10 05:02:56;;;;;;;14.90;11.20;;;13.10;99.90;;;;;;5041663;28;20104;-71
2022/05/10 05:05:25;;;;;;;15.15;11.07;;;13.30;99.90;;;;;;5041520;28;20557;-71
2022/05/10 05:07:51;;;;;;;14.10;11.18;;;13.50;99.90;;;;;;5037215;28;20025;-71
2022/05/10 05:10:22;;;;;;;14.38;11.45;;;13.60;99.90;;;;;;5043179;28;20046;-71
2022/05/10 05:12:48;;;;;;;16.33;11.48;;;13.70;99.90;;;;;;5043907;28;20060;-72
2022/05/10 05:15:14;;;;;;;15.40;11.05;;;13.80;99.90;;;;;;5040209;28;20049;-71
2022/05/10 05:17:42;;;;;;;13.10;11.20;;;13.90;99.90;;;;;;5037858;28;20477;-71
2022/05/10 05:20:09;;;;;;;18.23;11.48;;;14.10;99.90;;;;;;5043020;28;20514;-71
2022/05/10 05:22:38;;;;;;;14.95;11.50;;;14.30;99.90;;;;;;5046675;28;20051;-71
2022/05/10 05:25:07;;;;;;;16.38;10.82;;;14.30;99.90;;;;;;5035930;28;20017;-71
2022/05/10 05:27:33;;;;;;;17.00;11.55;;;14.40;99.90;;;;;;5043267;28;20083;-71
2022/05/10 05:29:59;;;;;;;18.17;11.15;;;14.50;99.90;;;;;;5043156;28;20025;-70
2022/05/10 05:32:34;;;;;;;16.40;11.60;;;14.70;99.90;;;;;;5042313;28;20108;-71
2022/05/10 05:35:00;;;;;;;14.98;10.60;;;14.90;99.90;;;;;;5043269;28;20049;-70
2022/05/10 05:37:34;;;;;;;19.90;11.88;;;15.00;99.90;;;;;;5041360;28;20107;-71
2022/05/10 05:40:13;;;;;;;13.93;11.20;;;15.10;99.90;;;;;;5041025;28;20036;-71
2022/05/10 05:42:38;;;;;;;15.27;11.38;;;15.20;99.90;;;;;;5039962;28;20025;-70
2022/05/10 05:45:07;;;;;;;20.88;11.65;;;15.30;99.90;;;;;;5035618;28;20032;-69
2022/05/10 05:47:33;;;;;;;16.25;12.20;;;15.50;99.90;;;;;;5036121;28;20044;-69
2022/05/10 05:49:58;;;;;;;17.00;11.35;;;15.50;99.90;;;;;;5042348;28;20037;-69
2022/05/10 05:52:25;;;;;;;15.52;11.43;;;15.50;99.90;;;;;;5039120;28;20029;-68
2022/05/10 05:54:51;;;;;;;18.95;12.20;;;15.60;99.90;;;;;;5031444;28;20029;-70
2022/05/10 05:57:18;;;;;;;17.23;11.68;;;15.80;99.90;;;;;;5041255;28;20112;-70
2022/05/10 05:59:44;;;;;;;16.23;11.45;;;15.80;99.90;;;;;;5034600;28;20039;-70
2022/05/10 06:02:11;;;;;;;15.55;11.73;;;15.90;99.90;;;;;;5042790;28;20115;-70
2022/05/10 06:04:37;;;;;;;16.98;12.20;;;15.90;99.90;;;;;;5035634;28;20033;-69
2022/05/10 06:07:03;;;;;;;18.73;11.57;;;16.00;99.90;;;;;;5037948;28;20377;-70
2022/05/10 06:09:29;;;;;;;20.40;12.63;;;16.00;99.90;;;;;;5043338;28;20032;-70
2022/05/10 06:11:54;;;;;;;15.23;11.05;;;16.00;99.90;;;;;;5044358;28;20029;-70
2022/05/10 06:14:20;;;;;;;17.25;10.98;;;16.00;99.90;;;;;;5030134;28;20166;-70
2022/05/10 06:16:46;;;;;;;14.45;10.63;;;16.10;99.90;;;;;;5027740;28;20041;-70
2022/05/10 06:19:12;;;;;;;14.13;11.75;;;16.20;99.90;;;;;;5041375;28;20128;-69
2022/05/10 06:21:40;;;;;;;14.30;11.02;;;16.20;99.90;;;;;;5047008;28;20425;-70
2022/05/10 06:24:06;;;;;;;15.63;11.68;;;16.10;99.90;;;;;;5042680;28;20025;-69
2022/05/10 06:26:31;;;;;;;13.57;10.93;;;16.20;99.90;;;;;;5035730;28;20032;-69
2022/05/10 06:28:57;;;;;;;18.05;11.57;;;16.20;99.90;;;;;;5041728;28;20390;-70
2022/05/10 06:31:23;;;;;;;16.45;12.10;;;16.20;99.90;;;;;;5045379;28;20688;-70
2022/05/10 06:33:48;;;;;;;16.73;11.20;;;16.20;99.90;;;;;;5038545;28;20029;-69
2022/05/10 06:36:14;;;;;;;16.67;11.38;;;16.20;99.90;;;;;;5040843;28;20735;-70
2022/05/10 06:38:40;;;;;;;16.30;10.82;;;16.30;99.90;;;;;;5034557;28;20025;-68
2022/05/10 06:41:06;;;;;;;12.95;10.38;;;16.30;99.90;;;;;;5053863;28;20049;-68
2022/05/10 06:43:38;;;;;;;18.00;9.95;;;16.30;99.90;;;;;;5036317;28;20492;-68
2022/05/10 06:46:11;;;;;;;15.75;9.93;;;16.20;99.90;;;;;;5040819;28;20017;-70
2022/05/10 06:48:37;;;;;;;12.95;9.88;;;16.30;99.90;;;;;;5037600;28;20026;-70
2022/05/10 06:51:08;;;;;;;13.35;11.25;;;16.30;99.90;;;;;;5044657;28;20033;-70
2022/05/10 06:53:34;;;;;;;12.57;10.07;;;16.40;99.90;;;;;;5044526;28;20071;-70
2022/05/10 06:56:04;;;;;;;16.52;10.10;;;16.40;99.90;;;;;;5044990;28;20040;-69
2022/05/10 06:58:30;;;;;;;14.38;10.90;;;16.50;99.90;;;;;;5040884;28;20068;-69
2022/05/10 07:00:57;;;;;;;16.48;12.05;;;16.50;99.90;;;;;;5031354;28;20385;-69
2022/05/10 07:03:32;;;;;;;13.90;9.57;;;16.60;99.90;;;;;;5034774;28;20051;-70
2022/05/10 07:06:05;;;;;;;11.48;9.63;;;16.80;99.90;;;;;;5046407;28;20485;-70
2022/05/10 07:08:31;;;;;;;15.10;10.38;;;16.90;99.90;;;;;;5048686;28;20041;-70
2022/05/10 07:10:58;;;;;;;15.88;9.38;;;17.10;99.90;;;;;;5041418;28;20029;-70
2022/05/10 07:13:29;;;;;;;13.63;9.50;;;17.20;99.90;;;;;;5042286;28;20146;-70
2022/05/10 07:15:55;;;;;;;12.68;8.75;;;17.40;99.90;;;;;;5034205;28;20027;-70
2022/05/10 07:18:21;;;;;;;11.20;9.30;;;17.50;99.90;;;;;;5044050;28;20034;-72
2022/05/10 07:20:48;;;;;;;13.18;10.15;;;17.60;99.90;;;;;;5039188;28;20041;-70
2022/05/10 07:23:18;;;;;;;12.50;9.05;;;17.60;99.90;;;;;;5041466;28;20035;-71
2022/05/10 07:25:44;;;;;;;11.75;9.40;;;17.70;99.90;;;;;;5040411;28;20060;-70
2022/05/10 07:28:10;;;;;;;14.43;10.43;;;17.70;99.90;;;;;;5042508;28;20053;-69
2022/05/10 07:30:37;;;;;;;12.70;9.90;;;17.70;99.90;;;;;;5039378;28;20547;-68
2022/05/10 07:33:04;;;;;;;12.60;9.45;;;17.80;99.90;;;;;;5036764;28;20025;-70
2022/05/10 07:38:16;;;;;;;12.20;9.23;;;17.90;99.90;;;;;;5038836;28;20059;-70
2022/05/10 07:40:44;;;;;;;13.88;10.18;;;17.90;99.90;;;;;;5039321;28;20807;-70
2022/05/10 07:43:12;;;;;;;14.77;9.77;;;17.90;99.90;;;;;;5006994;28;20045;-70
2022/05/10 07:45:40;;;;;;;14.18;9.95;;;18.10;99.90;;;;;;5045585;28;20033;-70
2022/05/10 07:48:08;;;;;;;13.43;10.65;;;18.20;99.90;;;;;;5040494;28;20039;-70
2022/05/10 07:50:34;;;;;;;10.95;9.10;;;18.20;99.90;;;;;;5037756;28;20037;-70
2022/05/10 07:53:06;;;;;;;12.07;9.13;;;18.30;99.90;;;;;;5036478;28;20033;-70
2022/05/10 07:55:32;;;;;;;10.98;8.55;;;18.40;99.90;;;;;;5044752;28;20130;-68
2022/05/10 07:57:58;;;;;;;12.13;9.50;;;18.40;99.90;;;;;;5044652;28;20033;-69
2022/05/10 08:00:27;;;;;;;13.85;10.43;;;18.50;99.90;;;;;;5044201;28;20033;-68
2022/05/10 08:02:52;;;;;;;12.05;9.38;;;18.50;99.90;;;;;;5039371;28;20036;-70
2022/05/10 08:05:22;;;;;;;11.52;9.48;;;18.60;99.90;;;;;;5049940;28;20025;-70
2022/05/10 08:07:51;;;;;;;11.25;9.00;;;18.70;99.90;;;;;;5045727;28;20115;-69
2022/05/10 08:10:18;;;;;;;13.65;9.50;;;18.90;99.90;;;;;;5045971;28;20028;-68
2022/05/10 08:12:44;;;;;;;10.68;8.02;;;18.90;99.90;;;;;;5046169;28;20027;-69
2022/05/10 08:15:10;;;;;;;12.35;9.45;;;19.10;99.90;;;;;;5045449;28;20037;-68
2022/05/10 08:17:36;;;;;;;13.07;9.00;;;19.10;99.90;;;;;;5054233;28;20025;-70
2022/05/10 08:20:03;;;;;;;14.88;9.65;;;19.30;99.90;;;;;;5043632;28;20029;-69
2022/05/10 08:22:29;;;;;;;12.77;8.65;;;19.40;99.90;;;;;;5035061;28;20037;-69
2022/05/10 08:24:55;;;;;;;12.98;9.20;;;19.50;99.90;;;;;;5046828;28;20450;-69
2022/05/10 08:27:21;;;;;;;13.35;9.55;;;19.50;99.90;;;;;;5038978;28;20036;-68
2022/05/10 08:29:47;;;;;;;13.00;9.70;;;19.50;99.90;;;;;;5043691;28;20037;-69
2022/05/10 08:32:12;;;;;;;10.55;9.45;;;19.70;99.90;;;;;;5041012;28;20080;-68
2022/05/10 08:34:38;;;;;;;13.68;9.02;;;19.80;99.90;;;;;;5042410;28;20423;-68
2022/05/10 08:37:05;;;;;;;14.90;9.20;;;19.80;99.90;;;;;;5044753;28;20415;-69
2022/05/10 08:39:31;;;;;;;10.52;8.63;;;19.90;99.90;;;;;;5040186;28;20049;-69
2022/05/10 08:42:00;;;;;;;10.27;7.70;;;19.90;99.90;;;;;;5045177;28;21415;-67
2022/05/10 08:44:29;;;;;;;12.50;8.07;;;20.00;99.90;;;;;;5045222;28;20377;-69
2022/05/10 08:47:03;;;;;;;11.88;8.45;;;20.10;99.90;;;;;;5046248;28;20430;-68
2022/05/10 08:49:34;;;;;;;;;;;20.20;99.90;;;;;;5042895;28;20365;-69
2022/05/10 08:52:01;;;;;;;9.88;7.90;;;20.30;99.80;;;;;;5045080;28;19908;-68
2022/05/10 08:54:29;;;;;;;11.10;7.90;;;20.30;98.90;;;;;;5047185;28;20040;-70
2022/05/10 08:57:00;;;;;;;11.50;8.23;;;20.30;99.10;;;;;;5039325;28;20093;-70
2022/05/10 08:59:52;;;;;;;12.40;7.78;;;20.40;99.10;;;;;;5043999;28;20561;-68
2022/05/10 09:02:39;;;;;;;10.43;7.72;;;20.50;98.30;;;;;;5044306;28;20039;-69
2022/05/10 09:05:20;;;;;;;10.57;6.93;;;20.60;97.90;;;;;;5045127;28;20024;-69
2022/05/10 09:08:00;;;;;;;10.15;7.07;;;20.70;97.50;;;;;;5044439;28;22444;-68
2022/05/10 09:10:37;;;;;;;17.88;6.70;;;20.80;97.30;;;;;;5043996;28;20112;-69
2022/05/10 09:13:16;;;;;;;10.20;6.38;;;20.80;97.00;;;;;;5039869;28;20798;-69
2022/05/10 09:15:56;;;;;;;9.13;6.22;;;20.90;96.80;;;;;;5034172;28;20113;-69
2022/05/10 09:18:40;;;;;;;8.40;6.60;;;21.00;96.50;;;;;;5047057;28;20070;-71
2022/05/10 09:21:26;;;;;;;10.73;6.88;;;21.00;96.40;;;;;;5043198;28;20033;-72
2022/05/10 09:24:29;;;;;;;7.32;6.32;;;21.10;96.00;;;;;;5038702;28;20738;-72
2022/05/10 09:27:05;;;;;;;9.15;7.55;;;21.10;95.60;;;;;;5039573;28;20389;-71
2022/05/10 09:29:39;;;;;;;9.32;5.90;;;21.20;95.70;;;;;;5041580;28;20371;-72
2022/05/10 09:35:25;;;;;;;7.70;5.63;;;21.50;93.80;;;;;;5043302;28;20036;-72
2022/05/10 09:37:55;;;;;;;5.30;4.55;;;21.80;93.60;;;;;;5045570;28;20466;-71
2022/05/10 09:40:32;;;;;;;7.40;5.00;;;21.80;91.60;;;;;;5045523;28;20037;-72
2022/05/10 09:43:17;;;;;;;8.23;5.57;;;21.90;90.90;;;;;;5032507;28;20052;-73
2022/05/10 09:45:44;;;;;;;15.27;5.88;;;21.90;91.60;;;;;;5039830;28;20059;-73
2022/05/10 09:48:16;;;;;;;7.10;5.95;;;21.90;91.60;;;;;;5038978;28;20167;-72
2022/05/10 09:50:52;;;;;;;8.93;5.60;;;21.90;92.00;;;;;;5040334;28;20147;-73
2022/05/10 09:53:28;;;;;;;8.40;4.93;;;21.90;91.90;;;;;;5042387;28;20025;-72
2022/05/10 09:56:02;;;;;;;7.40;5.75;;;22.00;91.50;;;;;;5035964;28;20437;-73
2022/05/10 09:58:42;;;;;;;8.00;5.18;;;22.10;91.30;;;;;;5041268;28;20021;-70
2022/05/10 10:01:11;;;;;;;7.78;5.65;;;22.10;91.40;;;;;;5041311;28;20029;-71
2022/05/10 10:03:46;;;;;;;7.63;5.43;;;22.20;90.60;;;;;;5040926;28;20033;-72
2022/05/10 10:06:21;;;;;;;6.05;4.82;;;22.10;89.90;;;;;;5040636;28;20039;-72
2022/05/10 10:08:59;;;;;;;8.13;5.25;;;22.00;90.10;;;;;;5046526;28;20044;-72
2022/05/10 10:11:28;;;;;;;6.07;4.93;;;22.10;89.70;;;;;;5041189;28;20095;-72
2022/05/10 10:13:57;;;;;;;6.10;4.72;;;22.00;89.40;;;;;;5043722;28;20497;-72
2022/05/10 10:16:32;;;;;;;6.20;5.18;;;22.10;89.80;;;;;;5045205;28;20029;-70
2022/05/10 10:19:25;;;;;;;9.95;6.00;;;22.10;89.20;;;;;;5043987;28;20041;-71
2022/05/10 10:21:55;;;;;;;5.38;4.88;;;22.10;88.80;;;;;;5041109;28;20048;-71
2022/05/10 10:24:38;;;;;;;6.25;4.68;;;22.10;88.30;;;;;;5040459;28;20585;-71
2022/05/10 10:27:09;;;;;;;5.80;5.00;;;22.30;87.30;;;;;;5035214;28;20017;-70
2022/05/10 10:30:16;;;;;;;8.65;4.80;;;22.40;86.50;;;;;;5044602;28;20082;-72
2022/05/10 10:32:49;;;;;;;7.90;4.88;;;22.50;84.80;;;;;;5007352;28;20407;-71
2022/05/10 10:35:20;;;;;;;4.47;3.72;;;22.70;82.10;;;;;;5042174;28;20024;-73
2022/05/10 10:37:58;;;;;;;5.45;4.53;;;22.60;81.10;;;;;;5046719;28;20460;-71
2022/05/10 10:40:24;;;;;;;4.70;3.88;;;22.70;80.40;;;;;;5041003;28;20040;-72
2022/05/10 10:43:20;;;;;;;5.03;4.25;;;22.70;80.40;;;;;;5038658;28;20025;-71
2022/05/10 10:45:51;;;;;;;7.07;5.00;;;22.80;80.50;;;;;;5038956;28;21074;-71
2022/05/10 10:48:25;;;;;;;7.22;3.97;;;22.80;80.00;;;;;;5017336;28;20503;-70
2022/05/10 10:50:51;;;;;;;6.40;3.58;;;23.00;76.80;;;;;;5032591;28;20040;-70
2022/05/10 10:53:20;;;;;;;6.80;4.65;;;23.10;74.70;;;;;;5034344;28;20505;-70
2022/05/10 10:56:10;;;;;;;4.80;3.53;;;23.20;74.10;;;;;;5042281;28;20082;-70
2022/05/10 10:58:51;;;;;;;6.10;3.97;;;23.40;71.90;;;;;;5035080;28;20040;-69
2022/05/10 11:01:31;;;;;;;4.95;3.10;;;23.40;72.30;;;;;;5034608;28;20329;-68
2022/05/10 11:04:09;;;;;;;4.70;3.70;;;23.40;67.50;;;;;;5044117;28;20025;-69
2022/05/10 11:06:54;;;;;;;4.30;3.63;;;23.30;68.10;;;;;;5041541;28;20044;-69
2022/05/10 11:09:41;;;;;;;9.00;4.28;;;23.40;68.90;;;;;;5039982;28;20030;-69
2022/05/10 11:13:01;;;;;;;12.27;4.45;;;23.40;69.00;;;;;;5042303;28;20147;-69
2022/05/10 11:15:42;;;;;;;4.85;3.72;;;23.40;69.10;;;;;;5012024;28;20045;-69
2022/05/10 11:18:27;;;;;;;4.57;3.15;;;23.60;67.80;;;;;;5042509;28;20029;-69
2022/05/10 11:21:31;;;;;;;3.55;3.15;;;23.60;66.30;;;;;;5042574;28;20496;-70
2022/05/10 11:24:09;;;;;;;4.97;3.85;;;23.70;65.50;;;;;;4999116;28;20095;-69
2022/05/10 11:27:20;;;;;;;3.75;3.35;;;23.80;64.10;;;;;;5060200;28;20065;-69
2022/05/10 11:30:05;;;;;;;5.07;4.05;;;23.90;65.50;;;;;;5057186;28;20020;-69
2022/05/10 11:35:22;;;;;;;3.75;2.63;;;24.00;64.60;;;;;;5074445;28;20056;-78
2022/05/10 11:38:11;;;;;;;3.25;2.78;;;24.10;61.30;;;;;;5055216;28;20029;-80
2022/05/10 11:41:05;;;;;;;3.95;2.80;;;24.20;59.80;;;;;;5055905;28;20025;-79
2022/05/10 11:43:47;;;;;;;6.40;2.53;;;24.10;58.60;;;;;;5040678;28;20074;-80
2022/05/10 11:46:29;;;;;;;3.08;2.70;;;24.00;58.30;;;;;;5035412;28;20025;-78
2022/05/10 11:49:25;;;;;;;3.35;2.88;;;23.90;59.00;;;;;;5051400;28;20021;-80
2022/05/10 11:52:34;;;;;;;3.42;2.75;;;23.80;58.20;;;;;;5035379;28;20021;-78
2022/05/10 11:55:26;;;;;;;4.68;2.88;;;23.90;57.20;;;;;;5037942;28;20510;-78
2022/05/10 11:57:59;;;;;;;6.90;3.80;;;24.00;56.50;;;;;;5006445;28;20040;-79
2022/05/10 12:00:30;;;;;;;2.80;2.47;;;24.00;57.60;;;;;;5034666;28;20025;-79
2022/05/10 12:03:33;;;;;;;3.78;2.80;;;23.90;56.20;;;;;;5055554;28;20025;-79
2022/05/10 12:06:24;;;;;;;3.28;2.97;;;23.90;56.50;;;;;;5057857;28;20550;-78
2022/05/10 12:08:54;;;;;;;4.68;3.00;;;24.00;57.70;;;;;;5036147;28;20541;-80
2022/05/10 12:11:32;;;;;;;4.25;3.00;;;24.10;58.60;;;;;;5058497;28;20029;-80
2022/05/10 12:22:58;;;;;;;3.63;2.60;;;24.60;54.70;;;;;;5052839;28;20073;-78
2022/05/10 12:25:44;;;;;;;4.10;3.28;;;24.80;54.50;;;;;;5036245;28;20025;-79
2022/05/10 12:28:10;;;;;;;4.45;3.65;;;25.00;54.00;;;;;;5051725;28;20055;-79
2022/05/10 12:30:39;;;;;;;3.33;2.70;;;25.00;54.00;;;;;;5055651;28;20048;-78
2022/05/10 12:33:36;;;;;;;4.10;2.90;;;25.10;53.10;;;;;;5051791;28;20495;-79
2022/05/10 12:36:11;;;;;;;2.78;2.33;;;25.10;51.90;;;;;;5037288;28;20029;-78
2022/05/10 12:38:44;;;;;;;3.53;2.40;;;25.20;52.40;;;;;;5056661;28;20033;-80
2022/05/10 12:41:49;;;;;;;3.67;2.67;;;25.30;51.90;;;;;;5051507;28;20035;-79
2022/05/10 12:44:55;;;;;;;3.42;2.33;;;25.40;51.00;;;;;;5032019;28;20036;-79
2022/05/10 12:47:45;;;;;;;4.50;2.75;;;25.60;50.60;;;;;;5052224;28;20393;-79
2022/05/10 12:50:30;;;;;;;5.65;2.70;;;25.70;51.50;;;;;;5032401;28;20032;-78
2022/05/10 12:52:55;;;;;;;3.15;2.17;;;25.90;51.40;;;;;;5052976;28;20098;-80
2022/05/10 12:55:42;;;;;;;3.42;2.25;;;26.00;50.40;;;;;;5054944;28;20123;-79
2022/05/10 12:58:30;;;;;;;3.15;2.53;;;26.20;49.40;;;;;;5053987;28;20028;-79
2022/05/10 13:00:59;;;;;;;2.75;2.10;;;26.30;48.20;;;;;;5050921;28;20045;-81
2022/05/10 13:03:37;;;;;;;2.88;2.40;;;26.30;48.70;;;;;;5051619;28;20021;-80
2022/05/10 13:06:18;;;;;;;3.92;2.72;;;26.20;48.60;;;;;;5054414;28;20377;-80
2022/05/10 13:09:25;;;;;;;3.13;2.60;;;26.10;49.20;;;;;;5057503;28;20025;-81
2022/05/10 13:11:56;;;;;;;3.65;3.10;;;26.10;49.00;;;;;;5049831;28;20027;-80
2022/05/10 13:14:27;;;;;;;3.45;2.50;;;26.20;49.30;;;;;;5054841;28;20053;-78
2022/05/10 13:16:54;;;;;;;3.35;2.78;;;26.00;49.30;;;;;;5051713;28;20029;-80
2022/05/10 13:19:25;;;;;;;6.18;2.95;;;25.90;49.60;;;;;;5050001;28;20044;-79
2022/05/10 13:21:58;;;;;;;3.63;2.85;;;25.80;50.00;;;;;;5045663;28;20053;-79
2022/05/10 13:24:27;;;;;;;3.30;2.70;;;25.70;50.50;;;;;;5051156;28;20033;-80
2022/05/10 13:26:56;;;;;;;3.05;2.47;;;25.70;50.60;;;;;;5053514;28;20115;-78
2022/05/10 13:29:48;;;;;;;4.30;2.47;;;25.70;50.50;;;;;;5038342;28;20021;-78
2022/05/10 13:32:53;;;;;;;3.75;2.78;;;25.70;49.60;;;;;;5033369;28;20083;-78
2022/05/10 13:35:27;;;;;;;3.55;2.42;;;25.70;50.10;;;;;;4954432;29;20027;-78
2022/05/10 13:37:53;;;;;;;3.58;3.03;;;25.70;49.50;;;;;;4939065;29;20147;-78